Time;durP1;ratioP1;P1;durP2;ratioP2;P2;SDS_P1;SDS_P2;PMS_P1;PMS_P2;Temp;Humidity;BMP_temperature;BMP_pressure;BME280_temperature;BME280_humidity;BME280_pressure;Samples;Min_cycle;Max_cycle;Signal;HPM_P1;HPM_P2
2022/06/16 06:01:11;;;;;;;;;22.75;22.00;;;;;21.91;51.75;101745.00;5081659;27;52725;-75
2022/06/16 06:03:38;;;;;;;;;19.50;18.50;;;;;22.04;50.70;101751.06;5065289;28;45505;-75
2022/06/16 06:06:04;;;;;;;;;20.50;20.50;;;;;22.25;50.56;101747.47;5072300;27;45525;-75
2022/06/16 06:16:46;;;;;;;;;18.75;17.50;;;;;23.41;49.01;101746.16;5062785;27;45854;-75
2022/06/16 06:19:23;;;;;;;;;19.50;19.25;;;;;23.65;48.49;101764.69;5065798;27;45549;-78
2022/06/16 06:22:01;;;;;;;;;16.00;16.00;;;;;23.90;48.34;101766.91;5065738;27;45927;-74
2022/06/16 06:24:30;;;;;;;;;17.67;17.33;;;;;24.14;47.73;101766.47;5057082;28;45451;-76
2022/06/16 06:26:57;;;;;;;;;18.25;18.25;;;;;24.37;46.96;101770.66;5067341;27;45443;-75
2022/06/16 06:29:23;;;;;;;;;16.50;16.00;;;;;24.58;46.52;101768.56;5062681;28;45790;-75
2022/06/16 06:31:48;;;;;;;;;16.67;15.67;;;;;24.81;45.96;101778.16;5062682;27;46697;-75
2022/06/16 06:34:14;;;;;;;;;17.00;15.33;;;;;24.96;45.75;101782.09;5058502;27;45458;-76
2022/06/16 06:36:39;;;;;;;;;21.25;20.00;;;;;25.08;45.24;101769.13;5063911;27;45514;-76
2022/06/16 06:39:04;;;;;;;;;19.33;19.00;;;;;25.23;44.82;101776.75;5066157;28;45468;-76
2022/06/16 06:41:29;;;;;;;;;18.33;18.00;;;;;25.32;44.99;101774.94;5065676;28;46251;-76
2022/06/16 06:43:55;;;;;;;;;16.67;16.67;;;;;25.42;44.65;101775.72;5061590;28;49804;-76
2022/06/16 06:46:20;;;;;;;;;17.67;17.67;;;;;25.53;44.13;101793.66;5066613;28;45469;-76
2022/06/16 06:48:45;;;;;;;;;18.67;17.00;;;;;25.60;44.32;101794.78;5066626;28;45485;-75
2022/06/16 06:51:11;;;;;;;;;19.33;17.00;;;;;25.69;44.15;101790.25;5061079;28;48775;-74
2022/06/16 06:53:36;;;;;;;;;17.67;17.67;;;;;25.83;44.56;101790.69;5067398;28;45641;-74
2022/06/16 06:56:02;;;;;;;;;19.33;17.67;;;;;25.95;44.24;101792.13;5068243;28;45443;-74
2022/06/16 06:58:32;;;;;;;;;15.00;15.00;;;;;26.06;45.33;101796.44;5065183;28;46237;-74
2022/06/16 07:01:00;;;;;;;;;18.33;17.00;;;;;26.17;44.67;101809.78;5066178;27;46709;-74
2022/06/16 07:03:25;;;;;;;;;16.33;16.00;;;;;26.26;44.34;101798.97;5067831;28;45489;-74
2022/06/16 07:05:51;;;;;;;;;16.67;13.67;;;;;26.37;44.36;101808.72;5064575;28;45561;-73
2022/06/16 07:08:16;;;;;;;;;16.67;15.67;;;;;26.47;44.40;101808.59;5069749;27;45570;-73
2022/06/16 07:10:42;;;;;;;;;16.00;16.00;;;;;26.51;43.66;101819.00;5057197;28;45830;-77
2022/06/16 07:13:07;;;;;;;;;16.67;15.33;;;;;26.56;44.16;101824.81;5048571;28;45447;-76
2022/06/16 07:15:34;;;;;;;;;16.00;15.00;;;;;26.61;44.13;101823.47;5052109;28;45416;-74
2022/06/16 07:17:59;;;;;;;;;15.00;15.00;;;;;26.64;43.93;101818.56;5050854;28;45419;-74
2022/06/16 07:20:24;;;;;;;;;15.33;15.00;;;;;26.69;43.58;101835.25;5055281;28;46187;-74
2022/06/16 07:22:50;;;;;;;;;17.33;15.67;;;;;26.74;43.88;101829.31;5052521;28;45466;-75
2022/06/16 07:25:15;;;;;;;;;17.00;14.00;;;;;26.80;43.88;101833.25;5050809;28;47703;-75
2022/06/16 07:27:41;;;;;;;;;16.00;13.00;;;;;26.82;43.77;101837.50;5052291;28;45447;-75
2022/06/16 07:30:14;;;;;;;;;14.00;14.00;;;;;26.91;44.05;101841.13;5050478;28;46044;-75
2022/06/16 07:32:44;;;;;;;;;13.33;13.33;;;;;26.98;43.39;101837.78;5053711;28;45364;-75
2022/06/16 07:35:12;;;;;;;;;18.00;15.33;;;;;27.06;43.38;101840.53;5053350;28;45485;-75
2022/06/16 07:37:37;;;;;;;;;14.33;14.33;;;;;27.12;43.45;101844.44;5051092;28;45734;-75
2022/06/16 07:40:04;;;;;;;;;14.00;14.00;;;;;27.17;43.07;101850.25;5053033;28;53078;-76
2022/06/16 07:42:29;;;;;;;;;15.00;13.00;;;;;27.23;42.77;101849.59;5050621;28;45564;-76
2022/06/16 07:44:55;;;;;;;;;12.33;12.33;;;;;27.28;42.83;101849.94;5053462;28;45273;-77
2022/06/16 07:47:20;;;;;;;;;13.00;13.00;;;;;27.32;42.99;101848.59;5055169;28;45448;-77
2022/06/16 07:49:49;;;;;;;;;12.33;12.33;;;;;27.39;42.71;101850.63;5051515;28;45939;-74
2022/06/16 07:52:15;;;;;;;;;12.67;12.67;;;;;27.41;42.59;101852.19;5050731;28;45410;-74
2022/06/16 07:54:40;;;;;;;;;15.00;13.00;;;;;27.46;43.25;101851.69;5053339;28;45483;-74
2022/06/16 07:57:06;;;;;;;;;12.33;12.33;;;;;27.49;42.52;101840.41;5050387;28;45676;-74
2022/06/16 07:59:31;;;;;;;;;18.67;17.00;;;;;27.52;42.42;101845.53;5047419;28;45708;-74
2022/06/16 08:01:56;;;;;;;;;13.00;13.00;;;;;27.55;43.12;101844.34;5051365;28;45826;-74
2022/06/16 08:04:22;;;;;;;;;12.67;12.67;;;;;27.57;42.49;101845.03;5051309;28;45367;-74
2022/06/16 08:06:47;;;;;;;;;10.67;10.67;;;;;27.60;42.72;101856.50;5051145;28;45332;-74
2022/06/16 08:09:13;;;;;;;;;13.00;13.00;;;;;27.63;43.09;101847.13;5050707;28;47081;-74
2022/06/16 08:14:23;;;;;;;;;13.33;13.33;;;;;27.65;42.91;101846.94;5053655;28;45691;-74
2022/06/16 08:16:48;;;;;;;;;12.67;12.67;;;;;27.69;42.21;101854.63;5048690;28;45606;-74
2022/06/16 08:19:13;;;;;;;;;15.00;12.67;;;;;27.70;42.60;101852.72;5049699;28;46428;-75
2022/06/16 08:21:39;;;;;;;;;13.00;13.00;;;;;27.70;42.44;101852.72;5051493;28;51828;-79
2022/06/16 08:24:06;;;;;;;;;16.67;15.67;;;;;27.71;41.88;101854.47;5051828;28;45405;-76
2022/06/16 08:26:32;;;;;;;;;12.67;12.67;;;;;27.72;41.80;101847.97;5053477;28;45898;-76
2022/06/16 08:28:58;;;;;;;;;14.00;14.00;;;;;27.70;42.01;101856.31;5051864;28;46098;-76
2022/06/16 08:31:25;;;;;;;;;12.33;12.33;;;;;27.71;42.08;101846.28;5050563;28;52708;-76
2022/06/16 08:33:52;;;;;;;;;14.00;12.00;;;;;27.74;42.32;101854.09;5052213;28;45494;-76
2022/06/16 08:36:18;;;;;;;;;15.33;13.00;;;;;27.76;41.78;101852.06;5050878;28;45482;-74
2022/06/16 08:38:43;;;;;;;;;14.67;14.67;;;;;27.79;42.32;101853.59;5052705;28;46526;-74
2022/06/16 08:41:17;;;;;;;;;13.00;13.00;;;;;27.81;41.69;101846.09;5053272;28;45426;-74
2022/06/16 08:44:21;;;;;;;;;15.33;15.00;;;;;27.84;42.22;101849.31;5051251;28;45482;-74
2022/06/16 08:47:02;;;;;;;;;12.33;12.33;;;;;27.84;41.94;101854.78;5046335;28;45689;-75
2022/06/16 08:49:35;;;;;;;;;13.67;13.67;;;;;27.85;41.57;101853.78;5050105;28;46356;-75
2022/06/16 08:52:39;;;;;;;;;14.00;14.00;;;;;27.85;41.80;101856.50;5044651;28;45632;-75
2022/06/16 08:55:25;;;;;;;;;13.67;13.67;;;;;27.88;41.92;101856.13;5044648;28;46233;-75
2022/06/16 08:58:13;;;;;;;;;15.00;15.00;;;;;27.90;41.37;101852.41;5041367;28;45534;-75
2022/06/16 09:00:59;;;;;;;;;12.67;11.33;;;;;27.90;42.04;101863.31;5048424;28;46047;-74
2022/06/16 09:03:57;;;;;;;;;13.67;13.67;;;;;27.93;41.96;101865.69;5049998;28;45564;-74
2022/06/16 09:06:34;;;;;;;;;14.00;12.33;;;;;27.95;41.96;101869.94;5048245;28;45370;-74
2022/06/16 09:09:02;;;;;;;;;14.00;14.00;;;;;27.98;41.39;101866.88;5044382;28;45566;-74
2022/06/16 09:11:56;;;;;;;;;10.00;10.00;;;;;28.02;41.49;101857.34;5051840;28;45470;-74
2022/06/16 09:15:10;;;;;;;;;12.00;12.00;;;;;28.06;41.22;101862.44;5053597;28;45408;-76
2022/06/16 09:17:29;;;;;;;;;12.33;12.33;;;;;28.08;41.38;101858.50;5044817;28;45596;-75
2022/06/16 09:20:18;;;;;;;;;13.67;13.67;;;;;28.12;40.94;101862.59;5051566;28;45451;-75
2022/06/16 09:22:58;;;;;;;;;12.67;12.67;;;;;28.14;40.83;101860.56;5050473;28;47477;-75
2022/06/16 09:25:36;;;;;;;;;11.33;11.33;;;;;28.20;40.69;101858.16;5052007;28;45824;-76
2022/06/16 09:28:12;;;;;;;;;13.67;12.33;;;;;28.23;40.76;101863.25;5050048;28;45456;-73
2022/06/16 09:30:40;;;;;;;;;14.33;14.33;;;;;28.24;40.71;101863.13;5050422;28;45455;-73
2022/06/16 09:33:18;;;;;;;;;13.67;12.00;;;;;28.26;41.14;101863.81;5049157;28;45281;-73
2022/06/16 09:35:57;;;;;;;;;12.33;12.33;;;;;28.26;40.93;101857.50;5051172;28;45463;-74
2022/06/16 09:38:36;;;;;;;;;12.33;11.33;;;;;28.24;41.18;101852.19;5052864;28;45449;-75
2022/06/16 09:44:19;;;;;;;;;14.00;12.67;;;;;28.22;40.40;101837.00;5049491;28;45769;-74
2022/06/16 09:46:54;;;;;;;;;15.33;13.67;;;;;28.21;40.58;101846.22;5048306;28;45530;-74
2022/06/16 09:49:28;;;;;;;;;12.33;12.33;;;;;28.20;40.52;101839.88;5049813;28;45462;-74
2022/06/16 09:52:02;;;;;;;;;11.00;11.00;;;;;28.19;40.62;101832.72;5048825;28;45523;-74
2022/06/16 09:54:36;;;;;;;;;13.67;13.67;;;;;28.20;41.21;101839.06;5042137;28;46403;-74
2022/06/16 09:57:12;;;;;;;;;13.67;12.67;;;;;28.18;41.11;101839.22;5046657;28;45887;-74
2022/06/16 09:59:46;;;;;;;;;13.00;13.00;;;;;28.17;41.18;101839.38;5051566;28;45466;-74
2022/06/16 10:02:18;;;;;;;;;13.00;13.00;;;;;28.13;40.47;101850.66;5051833;28;45689;-74
2022/06/16 10:04:45;;;;;;;;;12.00;12.00;;;;;28.11;40.56;101846.38;5048778;28;45618;-74
2022/06/16 10:07:25;;;;;;;;;10.33;10.33;;;;;28.07;40.99;101848.63;5048065;28;45696;-73
2022/06/16 10:10:05;;;;;;;;;11.00;11.00;;;;;28.04;40.70;101845.38;5040974;28;45511;-74
2022/06/16 10:12:51;;;;;;;;;8.33;8.33;;;;;28.01;40.46;101844.72;5041293;28;45641;-73
2022/06/16 10:15:45;;;;;;;;;12.00;12.00;;;;;27.98;40.53;101836.00;5047020;28;47203;-73
2022/06/16 10:18:11;;;;;;;;;8.00;8.00;;;;;27.98;41.14;101838.75;5045316;28;46271;-74
2022/06/16 10:20:38;;;;;;;;;13.33;10.33;;;;;27.96;41.03;101843.53;5049526;28;45349;-73
2022/06/16 10:23:16;;;;;;;;;11.00;11.00;;;;;27.95;41.45;101836.38;5052014;28;45449;-74
2022/06/16 10:25:47;;;;;;;;;11.33;11.33;;;;;27.95;40.54;101829.03;5048392;28;46408;-74
2022/06/16 10:28:21;;;;;;;;;10.67;10.67;;;;;27.95;41.11;101833.66;5044493;28;45412;-73
2022/06/16 10:30:46;;;;;;;;;10.00;9.00;;;;;27.93;40.60;101836.53;5039725;28;45869;-73
2022/06/16 10:33:18;;;;;;;;;13.33;11.33;;;;;27.93;40.87;101833.81;5039752;28;45526;-73
2022/06/16 10:35:51;;;;;;;;;10.33;10.33;;;;;27.94;40.82;101830.06;5037401;28;46886;-74
2022/06/16 10:38:46;;;;;;;;;12.00;12.00;;;;;27.96;41.11;101825.25;5046642;28;45604;-73
2022/06/16 10:41:36;;;;;;;;;11.67;11.67;;;;;28.01;40.89;101827.50;5040811;28;45677;-73
2022/06/16 10:44:06;;;;;;;;;10.67;10.67;;;;;28.02;40.64;101830.06;5048886;28;45512;-73
2022/06/16 10:46:36;;;;;;;;;11.00;11.00;;;;;28.04;40.70;101835.34;5044789;28;47040;-74
2022/06/16 10:49:06;;;;;;;;;11.00;11.00;;;;;28.05;41.21;101828.84;5051292;28;48577;-73
2022/06/16 10:51:35;;;;;;;;;10.00;10.00;;;;;28.07;41.35;101829.50;5050248;28;45490;-73
2022/06/16 10:54:13;;;;;;;;;13.33;13.33;;;;;28.10;40.96;101821.00;5041326;28;45858;-73
2022/06/16 10:56:40;;;;;;;;;11.67;11.67;;;;;28.12;40.68;101823.56;5044040;28;46226;-74
2022/06/16 10:59:19;;;;;;;;;11.00;9.00;;;;;28.15;41.07;101815.00;5044175;28;45537;-74
2022/06/16 11:01:55;;;;;;;;;9.67;9.67;;;;;28.17;40.36;101831.19;5042371;28;45610;-73
2022/06/16 11:04:33;;;;;;;;;8.33;8.33;;;;;28.19;40.47;101821.81;5038961;28;46990;-72
2022/06/16 11:07:01;;;;;;;;;15.33;12.00;;;;;28.20;40.86;101814.50;5042950;28;47280;-74
2022/06/16 11:09:29;;;;;;;;;13.33;11.33;;;;;28.19;40.77;101810.91;5042648;28;45591;-73
2022/06/16 11:11:59;;;;;;;;;10.00;10.00;;;;;28.20;40.89;101819.94;5041704;28;46013;-73
2022/06/16 11:14:45;;;;;;;;;9.67;9.67;;;;;28.21;41.19;101833.44;5043489;28;45730;-74
2022/06/16 11:17:16;;;;;;;;;10.00;9.67;;;;;28.21;40.62;101835.28;5043249;28;46131;-73
2022/06/16 11:19:46;;;;;;;;;9.33;9.33;;;;;28.24;40.54;101832.22;5041895;28;46066;-74
2022/06/16 11:22:28;;;;;;;;;11.33;11.33;;;;;28.26;40.55;101835.66;5040358;28;45526;-73
2022/06/16 11:25:15;;;;;;;;;11.33;10.33;;;;;28.31;40.40;101824.22;5041286;28;45584;-73
2022/06/16 11:27:46;;;;;;;;;11.67;10.33;;;;;28.33;40.21;101824.88;5041939;28;47219;-73
2022/06/16 11:30:39;;;;;;;;;10.33;10.33;;;;;28.34;40.57;101832.03;5041027;28;45601;-73
2022/06/16 11:36:16;;;;;;;;;14.33;13.00;;;;;28.36;40.51;101825.38;4994535;28;45687;-73
2022/06/16 11:38:55;;;;;;;;;11.67;11.33;;;;;28.37;40.56;101831.72;4996123;28;45542;-73
2022/06/16 11:41:24;;;;;;;;;12.00;12.00;;;;;28.31;40.25;101830.50;4998518;28;45744;-73
2022/06/16 11:44:24;;;;;;;;;16.67;14.00;;;;;28.08;41.06;101828.47;4994337;28;45602;-72
2022/06/16 11:47:06;;;;;;;;;11.00;11.00;;;;;27.87;41.35;101827.16;4993004;28;45974;-73
2022/06/16 11:49:46;;;;;;;;;9.67;9.67;;;;;27.77;41.31;101817.44;4995294;28;46161;-73
2022/06/16 11:52:36;;;;;;;;;13.67;11.67;;;;;27.65;42.40;101820.53;4993972;28;46319;-72
2022/06/16 11:55:31;;;;;;;;;13.67;13.33;;;;;27.58;41.94;101820.31;4994818;28;45516;-73
2022/06/16 11:58:00;;;;;;;;;11.00;11.00;;;;;27.52;42.71;101821.00;4993829;28;45704;-72
2022/06/16 12:00:32;;;;;;;;;13.00;10.67;;;;;27.49;42.66;101830.38;4994276;28;45597;-74
2022/06/16 12:03:25;;;;;;;;;10.00;9.00;;;;;27.47;42.41;101837.84;4993380;28;45500;-75
2022/06/16 12:06:28;;;;;;;;;10.67;10.67;;;;;27.43;42.36;101828.31;4995288;28;45975;-73
2022/06/16 12:09:24;;;;;;;;;11.67;11.67;;;;;27.34;42.98;101830.19;4980474;28;46047;-75
2022/06/16 12:12:03;;;;;;;;;11.67;11.67;;;;;27.26;42.68;101821.16;4992676;28;46594;-74
2022/06/16 12:14:44;;;;;;;;;11.67;10.00;;;;;27.21;43.44;101816.19;5042855;28;45773;-74
2022/06/16 12:17:19;;;;;;;;;10.33;10.33;;;;;27.18;42.82;101814.66;5043741;28;46021;-73
2022/06/16 12:20:00;;;;;;;;;12.67;11.00;;;;;27.15;43.27;101812.28;5039849;28;45848;-76
2022/06/16 12:22:40;;;;;;;;;8.33;8.33;;;;;27.13;43.15;101808.03;5040000;28;48311;-73
2022/06/16 12:25:32;;;;;;;;;13.00;11.67;;;;;27.10;42.99;101804.59;5042160;28;46041;-73
2022/06/16 12:28:18;;;;;;;;;9.33;9.33;;;;;27.08;43.73;101790.28;5040095;28;46096;-74
2022/06/16 12:31:04;;;;;;;;;11.00;10.00;;;;;27.08;43.07;101782.13;5040858;28;45512;-73
2022/06/16 12:33:57;;;;;;;;;9.33;9.33;;;;;27.07;43.27;101785.88;5041955;28;47019;-75
2022/06/16 12:36:32;;;;;;;;;12.00;10.33;;;;;27.10;43.32;101790.13;5036105;28;47093;-73
2022/06/16 12:39:23;;;;;;;;;7.67;7.67;;;;;27.12;43.10;101779.03;5041574;28;45660;-74
2022/06/16 12:41:54;;;;;;;;;11.33;11.00;;;;;27.15;43.80;101776.00;5040315;28;45608;-73
2022/06/16 12:44:30;;;;;;;;;12.00;12.00;;;;;27.19;43.25;101780.09;5058585;28;47068;-74
2022/06/16 12:47:01;;;;;;;;;11.67;10.33;;;;;27.19;43.25;101771.91;5041421;28;46138;-74
2022/06/16 12:49:36;;;;;;;;;10.67;10.67;;;;;27.21;43.66;101776.19;5039798;28;45471;-74
2022/06/16 12:52:08;;;;;;;;;11.00;11.00;;;;;27.23;43.57;101776.84;5039644;28;45719;-73
2022/06/16 12:54:44;;;;;;;;;11.33;11.33;;;;;27.19;43.67;101777.38;5040533;28;45775;-73
2022/06/16 12:57:17;;;;;;;;;10.67;10.00;;;;;27.16;43.27;101774.97;5039140;28;45494;-73
2022/06/16 13:00:05;;;;;;;;;10.00;9.00;;;;;27.13;43.73;101778.88;5039494;28;45523;-73
2022/06/16 13:02:36;;;;;;;;;9.00;9.00;;;;;27.12;43.45;101776.31;5041558;28;45616;-73
2022/06/16 13:05:09;;;;;;;;;10.00;9.00;;;;;27.09;43.39;101769.34;5040537;28;47165;-73
2022/06/16 13:07:36;;;;;;;;;12.00;11.00;;;;;27.07;43.79;101766.81;5041821;28;45525;-72
2022/06/16 13:10:05;;;;;;;;;8.33;8.33;;;;;27.06;43.98;101746.00;5048833;28;45475;-76
2022/06/16 13:12:34;;;;;;;;;8.33;7.67;;;;;27.08;43.67;101740.41;5040693;28;45714;-75
2022/06/16 13:15:11;;;;;;;;;11.67;11.33;;;;;27.11;43.87;101740.06;5042927;28;46233;-75
2022/06/16 13:17:45;;;;;;;;;10.33;10.33;;;;;27.19;43.49;101750.13;5040549;28;45751;-77
2022/06/16 13:20:14;;;;;;;;;10.67;10.67;;;;;27.20;43.33;101740.91;5043804;28;45568;-76
2022/06/16 13:22:43;;;;;;;;;9.00;9.00;;;;;27.26;43.14;101742.94;5040744;28;45537;-76
2022/06/16 13:25:31;;;;;;;;;9.00;9.00;;;;;27.29;43.21;101737.16;5042063;28;47999;-76
2022/06/16 13:27:57;;;;;;;;;10.00;10.00;;;;;27.32;43.66;101733.25;5041652;28;46051;-77
2022/06/16 13:30:37;;;;;;;;;10.67;10.33;;;;;27.35;43.45;101739.19;5040818;28;46966;-75
2022/06/16 13:33:06;;;;;;;;;9.00;9.00;;;;;27.38;43.41;101739.91;5042258;28;45635;-75
2022/06/16 13:35:47;;;;;;;;;9.33;9.33;;;;;27.39;43.22;101747.06;5039991;28;48207;-75
2022/06/16 13:38:13;;;;;;;;;11.33;9.33;;;;;27.40;43.51;101748.75;5041774;28;45595;-75
2022/06/16 13:40:40;;;;;;;;;8.33;8.33;;;;;27.38;42.86;101739.91;5038450;28;45480;-75
2022/06/16 13:43:17;;;;;;;;;12.67;10.33;;;;;27.36;42.75;101745.53;5041824;28;45500;-75
2022/06/16 13:45:58;;;;;;;;;8.67;8.67;;;;;27.34;43.38;101751.13;5038627;28;47171;-75
2022/06/16 13:48:34;;;;;;;;;10.00;10.00;;;;;27.31;43.05;101740.59;5037897;28;45646;-76
2022/06/16 13:51:02;;;;;;;;;9.00;9.00;;;;;27.31;43.65;101740.59;5041772;28;47262;-77
2022/06/16 13:53:30;;;;;;;;;9.33;9.00;;;;;27.31;42.97;101740.59;5036789;28;45489;-76
2022/06/16 13:56:08;;;;;;;;;8.33;8.33;;;;;27.29;43.21;101731.72;5040876;28;45586;-78
2022/06/16 13:58:58;;;;;;;;;9.00;9.00;;;;;27.29;42.93;101722.69;5036049;28;45558;-77
2022/06/16 14:01:29;;;;;;;;;11.33;11.00;;;;;27.29;43.48;101719.94;5038448;28;47018;-75
2022/06/16 14:04:16;;;;;;;;;9.33;9.33;;;;;27.27;43.40;101736.50;5034087;28;46796;-75
2022/06/16 14:06:59;;;;;;;;;9.00;9.00;;;;;27.22;43.25;101733.44;5034590;28;46046;-73
2022/06/16 14:09:47;;;;;;;;;8.33;8.33;;;;;27.19;43.00;101739.22;5037973;28;45705;-75
2022/06/16 14:12:46;;;;;;;;;6.33;6.00;;;;;27.14;42.64;101734.25;5033851;28;45780;-74
2022/06/16 14:15:13;;;;;;;;;8.00;8.00;;;;;27.10;42.81;101739.19;5037781;28;45617;-74
2022/06/16 14:17:41;;;;;;;;;9.33;9.00;;;;;27.09;42.56;101742.09;5038995;28;47425;-78
2022/06/16 14:20:20;;;;;;;;;11.00;7.67;;;;;27.10;42.66;101738.38;5038465;28;45732;-74
2022/06/16 14:22:50;;;;;;;;;12.33;9.67;;;;;27.10;42.59;101735.66;5039295;28;47108;-75
2022/06/16 14:25:22;;;;;;;;;10.00;10.00;;;;;27.13;43.21;101737.19;5040626;28;46098;-77
2022/06/16 14:27:56;;;;;;;;;11.67;9.00;;;;;27.15;43.40;101738.72;5040575;28;46412;-77
2022/06/16 14:30:27;;;;;;;;;11.33;8.67;;;;;27.21;42.71;101739.88;5041219;28;46264;-77
2022/06/16 14:33:02;;;;;;;;;9.00;7.67;;;;;27.23;43.07;101738.69;5039998;28;45547;-77
2022/06/16 14:35:33;;;;;;;;;9.00;8.33;;;;;27.24;43.21;101736.84;5043758;28;45747;-77
2022/06/16 14:38:16;;;;;;;;;9.33;8.33;;;;;27.27;43.01;101744.69;5041364;28;45514;-76
2022/06/16 14:40:53;;;;;;;;;8.00;8.00;;;;;27.30;42.45;101749.78;5043178;28;46053;-76
2022/06/16 14:43:46;;;;;;;;;10.33;9.00;;;;;27.33;42.61;101754.03;5042583;28;45941;-76
2022/06/16 14:46:21;;;;;;;;;7.67;7.67;;;;;27.33;42.89;101751.31;5040052;28;45550;-75
2022/06/16 14:48:49;;;;;;;;;8.00;7.67;;;;;27.31;42.54;101751.50;5039928;28;47059;-75
2022/06/16 14:51:21;;;;;;;;;7.00;6.33;;;;;27.28;43.11;101746.38;5037646;28;45510;-75
2022/06/16 14:54:01;;;;;;;;;7.67;7.67;;;;;27.28;42.75;101748.25;5043008;28;46138;-75
2022/06/16 14:56:26;;;;;;;;;9.33;9.33;;;;;27.24;43.08;101761.34;5041619;28;46115;-75
2022/06/16 14:58:53;;;;;;;;;12.00;8.00;;;;;27.21;42.83;101764.41;5040948;28;46921;-75
2022/06/16 15:01:26;;;;;;;;;10.00;9.00;;;;;27.18;43.08;101762.88;5039774;28;46679;-78
2022/06/16 15:03:54;;;;;;;;;8.33;7.00;;;;;27.16;42.92;101758.63;5041821;28;46106;-76
2022/06/16 15:06:21;;;;;;;;;9.00;8.00;;;;;27.16;43.16;101755.91;5040277;28;45504;-77
2022/06/16 15:08:54;;;;;;;;;7.67;7.67;;;;;27.17;43.62;101761.19;5042450;28;45833;-75
2022/06/16 15:11:24;;;;;;;;;8.00;7.00;;;;;27.19;43.58;101745.53;5041681;28;46119;-76
2022/06/16 15:13:54;;;;;;;;;7.00;7.00;;;;;27.21;43.65;101748.91;5041037;28;46979;-75
2022/06/16 15:19:12;;;;;;;;;7.00;7.00;;;;;27.20;43.28;101744.50;5040289;28;46820;-76
2022/06/16 15:21:40;;;;;;;;;9.67;9.00;;;;;27.23;42.88;101746.03;5040249;28;47969;-77
2022/06/16 15:24:06;;;;;;;;;10.00;10.00;;;;;27.24;42.95;101747.72;5041431;28;45720;-74
2022/06/16 15:26:31;;;;;;;;;10.00;8.00;;;;;27.25;42.96;101754.03;5041005;28;45969;-74
2022/06/16 15:29:15;;;;;;;;;7.33;7.33;;;;;27.27;42.95;101752.84;5041465;28;46836;-74
2022/06/16 15:31:59;;;;;;;;;7.00;7.00;;;;;27.30;42.72;101749.78;5046780;28;45532;-74
2022/06/16 15:37:10;;;;;;;;;6.67;6.67;;;;;27.41;43.33;101756.75;5046840;28;45530;-76
2022/06/16 15:39:39;;;;;;;;;7.33;7.00;;;;;27.44;43.13;101761.88;5047647;28;46150;-76
2022/06/16 15:42:17;;;;;;;;;6.67;6.67;;;;;27.47;43.22;101756.06;5042102;28;45831;-77
2022/06/16 15:44:46;;;;;;;;;9.67;8.33;;;;;27.49;42.74;101754.03;5046679;28;45382;-76
2022/06/16 15:47:17;;;;;;;;;10.00;8.33;;;;;27.51;42.75;101756.59;5052386;28;45609;-75
2022/06/16 15:49:53;;;;;;;;;8.67;8.67;;;;;27.47;42.47;101758.78;5049843;28;45663;-75
